createdAt,value
2023-04-14T00:00:00.509Z,34.79
2023-04-14T00:02:49.209Z,34.40
2023-04-14T00:05:38.020Z,34.38
2023-04-14T00:08:26.847Z,34.57
2023-04-14T00:11:16.863Z,35.21
2023-04-14T00:14:05.984Z,34.87
2023-04-14T00:16:54.663Z,35.23
2023-04-14T00:19:43.286Z,34.64
2023-04-14T00:22:31.927Z,35.06
2023-04-14T00:25:20.541Z,35.15
2023-04-14T00:28:10.496Z,34.92
2023-04-14T00:30:59.356Z,35.22
2023-04-14T00:33:48.379Z,34.62
2023-04-14T00:36:37.210Z,34.96
2023-04-14T00:39:25.823Z,35.10
2023-04-14T00:42:14.400Z,35.04
2023-04-14T00:45:04.503Z,34.80
2023-04-14T00:47:53.235Z,34.89
2023-04-14T00:50:41.964Z,35.09
2023-04-14T00:53:30.545Z,34.88
2023-04-14T00:56:19.236Z,34.96
2023-04-14T00:59:08.647Z,34.99
2023-04-14T01:01:58.888Z,35.24
2023-04-14T01:04:54.297Z,35.25
2023-04-14T01:07:43.790Z,35.24
2023-04-14T01:10:36.451Z,34.63
2023-04-14T01:13:33.697Z,34.86
2023-04-14T01:16:28.825Z,35.15
2023-04-14T01:19:34.297Z,35.19
2023-04-14T01:22:24.095Z,34.65
2023-04-14T01:25:30.876Z,34.94
2023-04-14T01:28:29.840Z,34.99
2023-04-14T01:31:26.142Z,35.03
2023-04-14T01:34:17.655Z,35.09
2023-04-14T01:37:08.874Z,34.94
2023-04-14T01:40:02.146Z,35.07
2023-04-14T01:42:54.883Z,34.84
2023-04-14T01:45:47.030Z,34.85
2023-04-14T01:48:37.882Z,34.81
2023-04-14T01:51:28.211Z,34.69
2023-04-14T01:54:17.871Z,34.85
2023-04-14T01:57:07.595Z,34.73
2023-04-14T01:59:58.652Z,34.79
2023-04-14T02:02:48.537Z,34.86
2023-04-14T02:05:40.260Z,34.91
2023-04-14T02:08:29.976Z,35.04
2023-04-14T02:11:20.245Z,35.00
2023-04-14T02:14:09.662Z,34.93
2023-04-14T02:16:59.286Z,35.20
2023-04-14T02:19:49.412Z,35.25
2023-04-14T02:22:39.382Z,34.87
2023-04-14T02:25:32.098Z,34.99
2023-04-14T02:28:22.201Z,34.75
2023-04-14T02:31:11.908Z,35.06
2023-04-14T02:34:02.320Z,35.08
2023-04-14T02:36:54.471Z,34.98
2023-04-14T02:39:45.559Z,34.66
2023-04-14T02:42:36.638Z,35.02
2023-04-14T02:45:27.793Z,34.90
2023-04-14T02:48:18.045Z,34.64
2023-04-14T02:51:07.768Z,34.95
2023-04-14T02:53:56.792Z,35.11
2023-04-14T02:56:46.900Z,35.17
2023-04-14T02:59:36.407Z,35.28
2023-04-14T03:02:25.635Z,34.92
2023-04-14T03:05:14.523Z,35.08
2023-04-14T03:08:04.589Z,34.57
2023-04-14T03:10:53.455Z,34.81
2023-04-14T03:13:44.208Z,34.87
2023-04-14T03:16:33.837Z,35.27
2023-04-14T03:19:25.303Z,35.13
2023-04-14T03:22:14.279Z,35.16
2023-04-14T03:25:02.876Z,34.97
2023-04-14T03:27:52.618Z,35.42
2023-04-14T03:30:46.328Z,35.21
2023-04-14T03:33:35.258Z,35.36
2023-04-14T03:36:24.122Z,34.90
2023-04-14T03:39:14.542Z,35.15
2023-04-14T03:42:03.577Z,35.32
2023-04-14T03:44:54.337Z,35.41
2023-04-14T03:47:44.380Z,35.47
2023-04-14T03:50:36.049Z,35.47
2023-04-14T03:53:24.866Z,35.59
2023-04-14T03:56:14.470Z,35.92
2023-04-14T03:59:03.252Z,35.38
2023-04-14T04:01:52.900Z,35.52
2023-04-14T04:04:43.089Z,35.57
2023-04-14T04:07:32.762Z,35.12
2023-04-14T04:10:21.930Z,35.60
2023-04-14T04:13:12.689Z,35.25
2023-04-14T04:16:01.295Z,35.81
2023-04-14T04:18:50.694Z,35.84
2023-04-14T04:21:42.261Z,35.87
2023-04-14T04:24:33.897Z,35.54
2023-04-14T04:27:28.118Z,35.20
2023-04-14T04:30:18.866Z,35.31
2023-04-14T04:33:07.915Z,35.50
2023-04-14T04:35:57.343Z,35.38
2023-04-14T04:38:49.832Z,35.76
2023-04-14T04:41:38.459Z,35.77
2023-04-14T04:44:27.077Z,35.74
2023-04-14T04:47:15.750Z,35.73
2023-04-14T04:50:04.371Z,35.89
2023-04-14T04:52:52.957Z,35.87
2023-04-14T04:55:44.052Z,35.96
2023-04-14T04:58:32.659Z,36.04
2023-04-14T05:01:21.556Z,35.48
2023-04-14T05:04:10.470Z,36.04
2023-04-14T05:06:59.067Z,35.93
2023-04-14T05:09:47.702Z,35.98
2023-04-14T05:12:37.653Z,35.95
2023-04-14T05:15:26.624Z,36.04
2023-04-14T05:18:15.577Z,36.24
2023-04-14T05:21:04.830Z,36.12
2023-04-14T05:23:53.407Z,35.87
2023-04-14T05:26:51.785Z,36.03
2023-04-14T05:29:48.314Z,36.00
2023-04-14T05:32:37.337Z,36.32
2023-04-14T05:35:26.649Z,36.24
2023-04-14T05:38:15.500Z,36.08
2023-04-14T05:41:04.108Z,35.92
2023-04-14T05:43:52.735Z,36.09
2023-04-14T05:46:42.792Z,36.40
2023-04-14T05:49:31.607Z,36.25
2023-04-14T05:52:20.541Z,36.33
2023-04-14T05:55:09.687Z,36.19
2023-04-14T05:57:58.288Z,36.30
2023-04-14T06:00:47.140Z,36.32
2023-04-14T06:03:40.223Z,35.71
2023-04-14T06:06:29.350Z,35.98
2023-04-14T06:09:17.968Z,35.83
2023-04-14T06:12:06.625Z,35.70
2023-04-14T06:14:55.520Z,36.14
2023-04-14T06:17:47.385Z,36.02
2023-04-14T06:20:38.122Z,35.74
2023-04-14T06:23:27.069Z,36.03
2023-04-14T06:26:15.678Z,35.96
2023-04-14T06:29:07.378Z,35.93
2023-04-14T06:31:56.438Z,35.60
2023-04-14T06:34:45.102Z,35.96
2023-04-14T06:37:35.041Z,35.61
2023-04-14T06:40:26.455Z,35.90
2023-04-14T06:43:15.243Z,35.86
2023-04-14T06:46:03.985Z,36.15
2023-04-14T06:48:52.589Z,36.13
2023-04-14T06:51:41.256Z,35.71
2023-04-14T06:54:32.870Z,36.04
2023-04-14T06:57:21.494Z,36.13
2023-04-14T07:00:11.362Z,36.02
2023-04-14T07:03:00.157Z,35.95
2023-04-14T07:05:48.844Z,36.31
2023-04-14T07:08:38.156Z,35.75
2023-04-14T07:11:29.741Z,36.21
2023-04-14T07:14:18.440Z,36.31
2023-04-14T07:17:06.982Z,36.30
2023-04-14T07:19:56.818Z,36.40
2023-04-14T07:22:45.579Z,36.33
2023-04-14T07:25:36.722Z,36.27
2023-04-14T07:28:28.113Z,35.97
2023-04-14T07:31:16.973Z,36.45
2023-04-14T07:34:05.833Z,36.36
2023-04-14T07:36:54.395Z,36.55
2023-04-14T07:39:43.388Z,36.16
2023-04-14T07:42:31.944Z,36.13
2023-04-14T07:45:22.632Z,36.02
2023-04-14T07:48:11.339Z,36.05
2023-04-14T07:51:02.054Z,36.37
2023-04-14T07:53:52.309Z,36.28
2023-04-14T07:56:41.018Z,36.28
2023-04-14T07:59:31.342Z,36.31
2023-04-14T08:02:21.654Z,36.06
2023-04-14T08:05:10.659Z,36.68
2023-04-14T08:07:59.231Z,36.43
2023-04-14T08:10:47.863Z,36.57
2023-04-14T08:13:36.470Z,36.31
2023-04-14T08:16:25.290Z,36.49
2023-04-14T08:19:15.391Z,36.52
2023-04-14T08:22:03.960Z,36.70
2023-04-14T08:24:52.649Z,36.75
2023-04-14T08:27:41.208Z,36.51
2023-04-14T08:30:29.922Z,36.33
2023-04-14T08:33:18.493Z,36.48
2023-04-14T08:36:08.955Z,36.84
2023-04-14T08:38:57.672Z,36.59
2023-04-14T08:41:46.348Z,36.59
2023-04-14T08:44:35.022Z,36.95
2023-04-14T08:47:24.603Z,36.79
2023-04-14T08:50:15.392Z,36.85
2023-04-14T08:53:08.193Z,36.65
2023-04-14T08:55:58.327Z,36.59
2023-04-14T08:58:48.313Z,36.71
2023-04-14T09:01:37.688Z,36.62
2023-04-14T09:04:27.344Z,36.52
2023-04-14T09:07:16.116Z,36.61
2023-04-14T09:10:07.415Z,36.75
2023-04-14T09:12:56.020Z,36.75
2023-04-14T09:15:44.901Z,36.57
2023-04-14T09:18:36.370Z,36.57
2023-04-14T09:21:30.221Z,36.67
2023-04-14T09:24:36.046Z,36.57
2023-04-14T09:27:26.219Z,36.50
2023-04-14T09:30:15.618Z,36.79
2023-04-14T09:33:07.179Z,36.80
2023-04-14T09:35:56.325Z,36.69
2023-04-14T09:38:45.096Z,36.38
2023-04-14T09:41:34.018Z,36.73
2023-04-14T09:44:24.043Z,36.46
2023-04-14T09:47:16.239Z,36.69
2023-04-14T09:50:05.778Z,36.85
2023-04-14T09:52:54.526Z,36.33
2023-04-14T09:55:47.276Z,36.19
2023-04-14T09:58:36.907Z,36.83
2023-04-14T10:01:30.796Z,36.45
2023-04-14T10:04:24.157Z,36.69
2023-04-14T10:07:13.037Z,36.71
2023-04-14T10:10:08.637Z,36.34
2023-04-14T10:12:57.503Z,36.41
2023-04-14T10:15:46.663Z,36.69
2023-04-14T10:18:36.785Z,36.68
2023-04-14T10:21:26.193Z,36.36
2023-04-14T10:24:15.103Z,36.20
2023-04-14T10:27:05.050Z,36.37
2023-04-14T10:29:54.221Z,36.65
2023-04-14T10:32:44.106Z,36.81
2023-04-14T10:35:39.143Z,36.47
2023-04-14T10:38:39.653Z,36.51
2023-04-14T10:41:28.617Z,36.69
2023-04-14T10:44:24.791Z,36.77
2023-04-14T10:47:25.088Z,36.61
2023-04-14T10:50:15.216Z,36.75
2023-04-14T10:53:09.372Z,36.43
2023-04-14T10:55:58.072Z,36.67
2023-04-14T10:58:56.372Z,36.32
2023-04-14T11:01:45.067Z,36.97
2023-04-14T11:04:33.868Z,36.47
2023-04-14T11:07:22.938Z,36.49
2023-04-14T11:10:30.414Z,36.78
2023-04-14T11:13:19.436Z,36.79
2023-04-14T11:16:09.037Z,36.55
2023-04-14T11:18:57.674Z,36.47
2023-04-14T11:21:50.952Z,36.66
2023-04-14T11:24:39.546Z,36.56
2023-04-14T11:27:29.521Z,36.67
2023-04-14T11:30:20.371Z,36.90
2023-04-14T11:33:08.981Z,36.76
2023-04-14T11:35:58.348Z,36.93
2023-04-14T11:38:47.226Z,36.92
2023-04-14T11:41:35.952Z,36.79
2023-04-14T11:44:26.468Z,36.69
2023-04-14T11:50:04.873Z,39.84
2023-04-14T11:52:55.098Z,38.57
2023-04-14T11:55:45.211Z,38.55
2023-04-14T11:58:33.879Z,38.44
2023-04-14T12:01:25.521Z,37.99
2023-04-14T12:04:14.220Z,37.87
2023-04-14T12:07:03.844Z,37.86
2023-04-14T12:09:52.443Z,37.78
2023-04-14T12:12:41.135Z,37.51
2023-04-14T12:15:30.699Z,37.54
2023-04-14T12:21:18.842Z,37.74
2023-04-14T12:24:07.620Z,37.57
2023-04-14T12:26:57.603Z,37.83
2023-04-14T12:29:47.239Z,37.89
2023-04-14T12:32:40.764Z,37.19
2023-04-14T12:35:36.036Z,37.63
2023-04-14T12:38:28.067Z,37.58
2023-04-14T12:41:23.936Z,37.82
2023-04-14T12:44:17.638Z,37.21
2023-04-14T12:47:06.510Z,37.28
2023-04-14T12:49:55.344Z,37.72
2023-04-14T12:52:45.404Z,37.88
2023-04-14T12:55:34.011Z,37.53
2023-04-14T12:58:23.216Z,37.47
2023-04-14T13:01:13.053Z,37.63
2023-04-14T13:04:01.835Z,37.13
2023-04-14T13:06:50.602Z,37.67
2023-04-14T13:09:42.534Z,37.90
2023-04-14T13:12:31.214Z,38.10
2023-04-14T13:16:00.249Z,37.88
2023-04-14T13:18:28.942Z,38.14
2023-04-14T13:21:17.811Z,38.04
2023-04-14T13:24:07.118Z,37.96
2023-04-14T13:26:57.124Z,37.57
2023-04-14T13:29:45.799Z,37.86
2023-04-14T13:32:34.562Z,38.00
2023-04-14T13:35:23.201Z,37.75
2023-04-14T13:38:11.868Z,37.60
2023-04-14T13:41:01.213Z,37.81
2023-04-14T13:43:51.229Z,37.91
2023-04-14T13:46:41.542Z,37.97
2023-04-14T13:49:31.381Z,37.65
2023-04-14T13:52:19.997Z,37.73
2023-04-14T13:55:09.661Z,38.00
2023-04-14T13:57:58.348Z,37.67
2023-04-14T14:00:48.454Z,37.89
2023-04-14T14:03:37.441Z,37.29
2023-04-14T14:06:26.500Z,37.96
2023-04-14T14:09:15.204Z,37.87
2023-04-14T14:12:03.894Z,37.98
2023-04-14T14:14:52.614Z,37.61
2023-04-14T14:17:42.788Z,37.88
2023-04-14T14:20:31.401Z,37.95
2023-04-14T14:23:20.105Z,38.46
2023-04-14T14:26:12.279Z,38.41
2023-04-14T14:29:00.973Z,38.46
2023-04-14T14:31:49.800Z,38.27
2023-04-14T14:34:40.012Z,38.25
2023-04-14T14:37:28.596Z,38.02
2023-04-14T14:40:17.185Z,38.01
2023-04-14T14:43:05.811Z,37.97
2023-04-14T14:45:54.622Z,38.19
2023-04-14T14:48:43.262Z,38.18
2023-04-14T14:51:33.193Z,38.31
2023-04-14T14:54:21.743Z,38.52
2023-04-14T14:57:10.419Z,38.20
2023-04-14T14:59:59.216Z,38.07
2023-04-14T15:02:48.276Z,38.19
2023-04-14T15:05:37.062Z,37.92
2023-04-14T15:08:27.087Z,37.83
2023-04-14T15:11:15.672Z,38.20
2023-04-14T15:14:04.490Z,38.94
2023-04-14T15:16:53.240Z,38.36
2023-04-14T15:19:42.643Z,38.46
2023-04-14T15:22:32.030Z,38.59
2023-04-14T15:25:25.050Z,38.23
2023-04-14T15:28:14.320Z,38.34
2023-04-14T15:31:03.253Z,37.91
2023-04-14T15:33:51.903Z,38.10
2023-04-14T15:36:41.092Z,38.24
2023-04-14T15:39:29.696Z,37.63
2023-04-14T15:42:19.797Z,37.41
2023-04-14T15:45:09.610Z,37.14
2023-04-14T15:47:58.363Z,37.03
2023-04-14T15:50:46.974Z,37.43
2023-04-14T15:53:35.563Z,37.70
2023-04-14T15:56:24.403Z,37.59
2023-04-14T15:59:14.561Z,37.22
2023-04-14T16:02:03.231Z,37.35
2023-04-14T16:04:52.108Z,37.47
2023-04-14T16:07:40.904Z,37.65
2023-04-14T16:10:29.904Z,37.72
2023-04-14T16:13:18.671Z,37.23
2023-04-14T16:16:08.981Z,36.98
2023-04-14T16:18:57.608Z,37.12
2023-04-14T16:21:46.349Z,36.74
2023-04-14T16:24:35.030Z,37.00
2023-04-14T16:27:23.572Z,36.96
2023-04-14T16:30:13.030Z,36.94
2023-04-14T16:33:03.335Z,36.72
2023-04-14T16:35:51.948Z,37.20
2023-04-14T16:38:40.856Z,37.11
2023-04-14T16:41:29.761Z,37.13
2023-04-14T16:44:18.307Z,36.63
2023-04-14T16:47:06.948Z,36.75
2023-04-14T16:49:57.160Z,36.94
2023-04-14T16:52:46.077Z,37.38
2023-04-14T16:55:34.875Z,36.92
2023-04-14T16:58:23.731Z,36.87
2023-04-14T17:01:12.326Z,36.88
2023-04-14T17:04:01.173Z,36.94
2023-04-14T17:06:51.447Z,36.69
2023-04-14T17:09:40.047Z,36.99
2023-04-14T17:12:28.781Z,36.74
2023-04-14T17:15:18.210Z,36.83
2023-04-14T17:18:07.031Z,37.09
2023-04-14T17:20:55.689Z,37.53
2023-04-14T17:23:45.676Z,37.57
2023-04-14T17:26:34.984Z,37.62
2023-04-14T17:29:23.539Z,37.01
2023-04-14T17:32:12.367Z,36.96
2023-04-14T17:35:01.307Z,37.17
2023-04-14T17:37:50.026Z,37.46
2023-04-14T17:40:40.054Z,37.57
2023-04-14T17:43:28.868Z,37.77
2023-04-14T17:46:17.737Z,37.28
2023-04-14T17:49:07.678Z,37.11
2023-04-14T17:51:57.019Z,37.12
2023-04-14T17:54:46.068Z,37.10
2023-04-14T17:57:36.185Z,37.11
2023-04-14T18:00:24.975Z,37.17
2023-04-14T18:03:14.576Z,37.42
2023-04-14T18:06:03.791Z,36.64
2023-04-14T18:08:52.894Z,36.96
2023-04-14T18:11:41.424Z,37.04
2023-04-14T18:14:32.133Z,36.83
2023-04-14T18:17:22.074Z,37.07
2023-04-14T18:20:11.826Z,37.65
2023-04-14T18:23:02.259Z,37.04
2023-04-14T18:28:52.399Z,36.16
2023-04-14T18:31:42.662Z,36.20
2023-04-14T18:34:31.337Z,36.19
2023-04-14T18:37:19.930Z,35.97
2023-04-14T18:40:09.632Z,36.20
2023-04-14T18:42:58.207Z,36.67
2023-04-14T18:45:47.617Z,36.06
2023-04-14T18:48:37.824Z,36.15
2023-04-14T18:51:26.517Z,36.23
2023-04-14T18:54:15.271Z,36.36
2023-04-14T18:57:04.429Z,35.99
2023-04-14T18:59:53.272Z,36.24
2023-04-14T19:02:42.834Z,36.30
2023-04-14T19:05:35.097Z,36.00
2023-04-14T19:08:24.104Z,36.17
2023-04-14T19:11:13.052Z,36.14
2023-04-14T19:14:01.934Z,36.22
2023-04-14T19:16:50.586Z,36.21
2023-04-14T19:19:39.534Z,36.02
2023-04-14T19:22:29.672Z,35.98
2023-04-14T19:25:18.580Z,36.08
2023-04-14T19:28:07.958Z,35.91
2023-04-14T19:30:56.912Z,36.04
2023-04-14T19:33:45.618Z,36.17
2023-04-14T19:36:34.358Z,36.00
2023-04-14T19:39:24.759Z,35.83
2023-04-14T19:42:13.439Z,35.55
2023-04-14T19:45:02.515Z,36.03
2023-04-14T19:47:51.722Z,35.70
2023-04-14T19:50:42.871Z,35.67
2023-04-14T19:53:31.636Z,35.63
2023-04-14T19:56:22.658Z,35.93
2023-04-14T19:59:11.356Z,36.19
2023-04-14T20:02:01.034Z,35.95
2023-04-14T20:04:49.995Z,35.82
2023-04-14T20:07:38.847Z,35.76
2023-04-14T20:10:27.440Z,35.85
2023-04-14T20:13:17.419Z,35.84
2023-04-14T20:16:06.574Z,35.80
2023-04-14T20:18:55.484Z,35.55
2023-04-14T20:21:44.542Z,35.49
2023-04-14T20:24:33.363Z,35.74
2023-04-14T20:27:22.041Z,35.92
2023-04-14T20:30:13.472Z,36.29
2023-04-14T20:33:06.839Z,36.10
2023-04-14T20:35:55.542Z,36.59
2023-04-14T20:38:44.228Z,36.86
2023-04-14T20:41:32.802Z,36.63
2023-04-14T20:44:21.448Z,36.56
2023-04-14T20:47:11.567Z,36.48
2023-04-14T20:50:00.188Z,36.85
2023-04-14T20:52:48.865Z,36.71
2023-04-14T20:55:37.553Z,36.78
2023-04-14T20:58:26.218Z,37.04
2023-04-14T21:01:15.567Z,37.36
2023-04-14T21:04:05.810Z,37.14
2023-04-14T21:06:54.877Z,37.66
2023-04-14T21:09:43.442Z,38.33
2023-04-14T21:12:35.580Z,38.06
2023-04-14T21:15:49.246Z,38.41
2023-04-14T21:18:33.207Z,38.22
2023-04-14T21:21:23.150Z,38.15
2023-04-14T21:24:11.903Z,38.63
2023-04-14T21:27:01.799Z,38.52
2023-04-14T21:29:50.558Z,38.36
2023-04-14T21:32:39.882Z,38.67
2023-04-14T21:35:28.633Z,39.02
2023-04-14T21:38:18.631Z,38.96
2023-04-14T21:41:07.845Z,39.11
2023-04-14T21:43:56.502Z,38.94
2023-04-14T21:46:45.168Z,39.26
2023-04-14T21:49:33.766Z,39.37
2023-04-14T21:52:22.405Z,39.43
2023-04-14T21:55:12.493Z,39.07
2023-04-14T21:58:02.466Z,39.09
2023-04-14T22:00:51.796Z,39.37
2023-04-14T22:03:41.894Z,39.34
2023-04-14T22:06:30.657Z,39.16
2023-04-14T22:09:19.208Z,38.73
2023-04-14T22:12:09.216Z,39.00
2023-04-14T22:14:59.092Z,39.17
2023-04-14T22:17:47.712Z,39.27
2023-04-14T22:20:36.426Z,39.46
2023-04-14T22:23:25.114Z,39.04
2023-04-14T22:26:14.609Z,39.13
2023-04-14T22:29:05.122Z,39.05
2023-04-14T22:31:53.817Z,38.82
2023-04-14T22:34:42.460Z,39.33
2023-04-14T22:37:31.267Z,39.61
2023-04-14T22:40:19.931Z,39.58
2023-04-14T22:43:09.556Z,39.73
2023-04-14T22:45:59.515Z,39.46
2023-04-14T22:48:48.271Z,39.55
2023-04-14T22:51:37.045Z,39.21
2023-04-14T22:54:25.670Z,38.82
2023-04-14T22:57:14.252Z,39.19
2023-04-14T23:00:08.905Z,38.79
2023-04-14T23:02:59.747Z,39.25
2023-04-14T23:05:48.801Z,38.80
2023-04-14T23:08:37.495Z,39.13
2023-04-14T23:11:26.120Z,39.08
2023-04-14T23:14:14.699Z,38.97
2023-04-14T23:17:04.213Z,38.92
2023-04-14T23:19:54.761Z,39.09
2023-04-14T23:22:43.567Z,39.42
2023-04-14T23:25:32.256Z,39.56
2023-04-14T23:28:20.848Z,39.28
2023-04-14T23:31:09.451Z,39.63
2023-04-14T23:34:01.572Z,39.46
2023-04-14T23:36:51.601Z,39.16
2023-04-14T23:39:40.664Z,39.27
2023-04-14T23:42:29.259Z,39.32
2023-04-14T23:45:17.944Z,39.08
2023-04-14T23:48:07.446Z,39.20
2023-04-14T23:51:03.396Z,38.97
2023-04-14T23:54:06.568Z,38.99
2023-04-14T23:56:55.264Z,38.74
2023-04-14T23:59:44.194Z,38.87
